createdAt,value
2018-03-19T00:00:50.757Z,47.34
2018-03-19T00:01:50.732Z,47.44
2018-03-19T00:02:50.704Z,47.34
2018-03-19T00:03:50.686Z,47.06
2018-03-19T00:04:50.657Z,46.97
2018-03-19T00:05:50.632Z,46.78
2018-03-19T00:06:50.612Z,47.34
2018-03-19T00:07:50.581Z,47.25
2018-03-19T00:08:50.562Z,46.88
2018-03-19T00:09:50.531Z,46.88
2018-03-19T00:10:50.502Z,47.16
2018-03-19T00:11:50.482Z,46.97
2018-03-19T00:12:50.461Z,47.06
2018-03-19T00:13:50.433Z,47.16
2018-03-19T00:14:50.404Z,47.16
2018-03-19T00:15:50.388Z,47.44
2018-03-19T00:16:50.352Z,47.82
2018-03-19T00:17:50.328Z,47.63
2018-03-19T00:18:50.299Z,47.53
2018-03-19T00:19:50.273Z,47.44
2018-03-19T00:20:50.256Z,47.44
2018-03-19T00:21:50.221Z,47.44
2018-03-19T00:22:50.201Z,47.44
2018-03-19T00:23:50.171Z,47.25
2018-03-19T00:24:50.151Z,47.53
2018-03-19T00:25:50.116Z,47.53
2018-03-19T00:26:50.096Z,47.44
2018-03-19T00:27:50.099Z,47.91
2018-03-19T00:28:50.046Z,47.91
2018-03-19T00:29:50.018Z,48.01
2018-03-19T00:30:49.992Z,48.10
2018-03-19T00:31:49.970Z,48.10
2018-03-19T00:32:49.941Z,47.72
2018-03-19T00:33:49.915Z,47.91
2018-03-19T00:34:49.892Z,48.20
2018-03-19T00:35:49.865Z,47.72
2018-03-19T00:36:49.837Z,47.91
2018-03-19T00:37:49.848Z,48.10
2018-03-19T00:38:49.786Z,47.63
2018-03-19T00:39:49.760Z,47.82
2018-03-19T00:40:49.739Z,47.63
2018-03-19T00:41:49.710Z,47.53
2018-03-19T00:42:49.684Z,47.82
2018-03-19T00:43:49.665Z,47.82
2018-03-19T00:44:49.632Z,47.72
2018-03-19T00:45:49.609Z,47.53
2018-03-19T00:46:49.580Z,47.16
2018-03-19T00:47:49.556Z,47.44
2018-03-19T00:48:49.524Z,47.72
2018-03-19T00:49:49.500Z,47.82
2018-03-19T00:50:49.479Z,47.53
2018-03-19T00:51:49.450Z,47.82
2018-03-19T00:52:49.431Z,47.91
2018-03-19T00:53:49.402Z,47.82
2018-03-19T00:54:49.377Z,47.82
2018-03-19T00:55:49.348Z,47.91
2018-03-19T00:56:49.320Z,47.82
2018-03-19T00:57:49.295Z,48.29
2018-03-19T00:58:49.272Z,48.67
2018-03-19T00:59:49.246Z,48.39
2018-03-19T01:00:49.220Z,48.20
2018-03-19T01:01:49.200Z,47.82
2018-03-19T01:02:49.171Z,47.63
2018-03-19T01:03:49.147Z,47.44
2018-03-19T01:04:49.114Z,47.16
2018-03-19T01:05:49.090Z,47.25
2018-03-19T01:06:49.080Z,47.72
2018-03-19T01:07:49.048Z,47.72
2018-03-19T01:08:49.019Z,47.91
2018-03-19T01:09:49.002Z,48.01
2018-03-19T01:10:48.963Z,48.29
2018-03-19T01:11:48.942Z,48.20
2018-03-19T01:12:48.917Z,47.91
2018-03-19T01:13:48.885Z,47.82
2018-03-19T01:14:48.860Z,47.82
2018-03-19T01:15:48.838Z,47.72
2018-03-19T01:16:48.813Z,48.01
2018-03-19T01:17:48.785Z,47.82
2018-03-19T01:18:48.760Z,48.10
2018-03-19T01:19:48.730Z,47.91
2018-03-19T01:20:48.710Z,47.91
2018-03-19T01:21:48.678Z,47.72
2018-03-19T01:22:48.660Z,47.91
2018-03-19T01:23:48.632Z,48.01
2018-03-19T01:24:48.608Z,48.01
2018-03-19T01:25:48.577Z,48.29
2018-03-19T01:26:48.549Z,47.82
2018-03-19T01:27:48.525Z,47.72
2018-03-19T01:28:48.498Z,47.72
2018-03-19T01:29:48.480Z,48.20
2018-03-19T01:30:48.455Z,48.10
2018-03-19T01:31:48.433Z,47.91
2018-03-19T01:32:48.396Z,47.91
2018-03-19T01:33:48.369Z,48.01
2018-03-19T01:34:48.345Z,47.82
2018-03-19T01:35:48.319Z,48.01
2018-03-19T01:36:48.290Z,47.91
2018-03-19T01:37:48.273Z,47.82
2018-03-19T01:38:48.240Z,48.01
2018-03-19T01:39:48.218Z,48.10
2018-03-19T01:40:48.197Z,48.10
2018-03-19T01:41:48.167Z,47.91
2018-03-19T01:42:48.143Z,48.20
2018-03-19T01:43:48.116Z,48.29
2018-03-19T01:44:48.089Z,48.29
2018-03-19T01:45:48.061Z,48.29
2018-03-19T01:46:48.039Z,47.82
2018-03-19T01:47:48.012Z,48.01
2018-03-19T01:48:47.983Z,47.91
2018-03-19T01:49:47.962Z,48.29
2018-03-19T01:50:47.931Z,48.57
2018-03-19T01:51:47.906Z,48.20
2018-03-19T01:52:47.880Z,48.48
2018-03-19T01:53:47.857Z,49.05
2018-03-19T01:54:47.831Z,48.29
2018-03-19T01:55:47.801Z,48.95
2018-03-19T01:56:47.777Z,48.76
2018-03-19T01:57:47.749Z,48.39
2018-03-19T01:58:47.722Z,48.67
2018-03-19T01:59:47.700Z,48.76
2018-03-19T02:00:47.670Z,49.02
2018-03-19T02:01:47.651Z,48.65
2018-03-19T02:02:47.621Z,48.67
2018-03-19T02:03:47.596Z,49.24
2018-03-19T02:04:47.574Z,49.43
2018-03-19T02:05:47.544Z,49.52
2018-03-19T02:06:47.522Z,49.52
2018-03-19T02:07:47.492Z,49.24
2018-03-19T02:08:47.469Z,49.33
2018-03-19T02:09:47.439Z,49.14
2018-03-19T02:10:47.414Z,49.90
2018-03-19T02:11:47.390Z,50.37
2018-03-19T02:12:47.362Z,49.52
2018-03-19T02:13:47.336Z,49.24
2018-03-19T02:14:47.309Z,48.93
2018-03-19T02:15:47.283Z,49.02
2018-03-19T02:16:47.256Z,49.40
2018-03-19T02:17:47.229Z,49.78
2018-03-19T02:18:47.208Z,50.44
2018-03-19T02:19:47.189Z,50.16
2018-03-19T02:20:47.158Z,49.87
2018-03-19T02:21:47.131Z,50.06
2018-03-19T02:22:47.100Z,50.44
2018-03-19T02:23:47.080Z,50.44
2018-03-19T02:24:47.050Z,50.35
2018-03-19T02:25:47.026Z,49.87
2018-03-19T02:26:47.000Z,50.09
2018-03-19T02:27:46.980Z,50.56
2018-03-19T02:28:46.948Z,49.78
2018-03-19T02:29:46.927Z,50.06
2018-03-19T02:30:46.893Z,50.16
2018-03-19T02:31:46.874Z,50.06
2018-03-19T02:32:46.840Z,49.59
2018-03-19T02:33:46.815Z,50.35
2018-03-19T02:34:46.789Z,49.90
2018-03-19T02:35:46.767Z,49.97
2018-03-19T02:36:46.739Z,49.97
2018-03-19T02:37:46.720Z,50.35
2018-03-19T02:38:46.692Z,49.68
2018-03-19T02:39:46.661Z,50.06
2018-03-19T02:40:46.639Z,50.56
2018-03-19T02:41:46.619Z,49.90
2018-03-19T02:42:46.579Z,50.27
2018-03-19T02:43:46.559Z,49.80
2018-03-19T02:44:46.531Z,50.09
2018-03-19T02:45:46.508Z,49.71
2018-03-19T02:46:46.481Z,50.16
2018-03-19T02:47:46.464Z,49.90
2018-03-19T02:48:46.424Z,49.87
2018-03-19T02:49:46.399Z,49.68
2018-03-19T02:50:46.376Z,49.68
2018-03-19T02:51:46.349Z,49.78
2018-03-19T02:52:46.320Z,50.44
2018-03-19T02:53:46.294Z,50.06
2018-03-19T02:54:46.271Z,50.16
2018-03-19T02:55:46.243Z,49.59
2018-03-19T02:56:46.222Z,49.68
2018-03-19T02:57:46.198Z,49.78
2018-03-19T02:58:46.166Z,50.06
2018-03-19T02:59:46.140Z,49.78
2018-03-19T03:00:46.118Z,49.97
2018-03-19T03:01:46.088Z,50.35
2018-03-19T03:02:46.060Z,50.16
2018-03-19T03:03:46.037Z,49.68
2018-03-19T03:04:46.007Z,49.97
2018-03-19T03:05:45.989Z,49.97
2018-03-19T03:06:45.958Z,50.16
2018-03-19T03:07:46.078Z,50.16
2018-03-19T03:08:45.918Z,50.35
2018-03-19T03:09:45.880Z,50.63
2018-03-19T03:10:45.862Z,50.25
2018-03-19T03:11:45.840Z,49.87
2018-03-19T03:12:45.800Z,50.53
2018-03-19T03:13:45.781Z,50.63
2018-03-19T03:14:45.750Z,50.44
2018-03-19T03:15:45.726Z,50.91
2018-03-19T03:16:45.703Z,50.91
2018-03-19T03:17:45.671Z,51.01
2018-03-19T03:18:45.650Z,50.72
2018-03-19T03:19:45.617Z,51.39
2018-03-19T03:20:45.612Z,51.20
2018-03-19T03:21:45.566Z,50.72
2018-03-19T03:22:45.541Z,51.39
2018-03-19T03:23:45.520Z,50.91
2018-03-19T03:24:45.487Z,50.72
2018-03-19T03:25:45.464Z,50.44
2018-03-19T03:26:45.438Z,50.44
2018-03-19T03:27:45.409Z,50.53
2018-03-19T03:28:45.389Z,50.63
2018-03-19T03:29:45.356Z,50.91
2018-03-19T03:30:45.339Z,50.82
2018-03-19T03:31:45.310Z,51.57
2018-03-19T03:32:45.279Z,51.20
2018-03-19T03:33:45.249Z,51.48
2018-03-19T03:34:45.231Z,51.48
2018-03-19T03:35:45.200Z,51.29
2018-03-19T03:36:45.177Z,51.48
2018-03-19T03:37:45.146Z,51.95
2018-03-19T03:38:45.121Z,51.39
2018-03-19T03:39:45.095Z,51.67
2018-03-19T03:40:45.070Z,51.48
2018-03-19T03:41:45.050Z,51.86
2018-03-19T03:42:45.019Z,51.39
2018-03-19T03:43:44.989Z,51.48
2018-03-19T03:44:44.966Z,51.95
2018-03-19T03:45:44.936Z,52.23
2018-03-19T03:46:44.913Z,51.95
2018-03-19T03:47:44.884Z,51.95
2018-03-19T03:48:44.860Z,52.04
2018-03-19T03:49:44.837Z,52.33
2018-03-19T03:50:44.803Z,52.04
2018-03-19T03:51:44.779Z,52.23
2018-03-19T03:52:44.757Z,52.70
2018-03-19T03:53:44.728Z,52.80
2018-03-19T03:54:44.708Z,52.51
2018-03-19T03:55:44.680Z,52.80
2018-03-19T03:56:44.658Z,52.61
2018-03-19T03:57:44.634Z,53.46
2018-03-19T03:58:44.598Z,52.70
2018-03-19T03:59:44.580Z,52.89
2018-03-19T04:00:44.550Z,53.18
2018-03-19T04:01:44.519Z,53.56
2018-03-19T04:02:44.494Z,53.56
2018-03-19T04:03:44.469Z,53.37
2018-03-19T04:04:44.439Z,53.37
2018-03-19T04:05:44.420Z,53.46
2018-03-19T04:06:44.440Z,53.37
2018-03-19T04:07:44.363Z,53.18
2018-03-19T04:08:44.358Z,53.08
2018-03-19T04:09:44.310Z,53.08
2018-03-19T04:10:44.290Z,52.99
2018-03-19T04:11:44.263Z,53.08
2018-03-19T04:12:44.310Z,53.18
2018-03-19T04:13:44.204Z,53.27
2018-03-19T04:14:44.178Z,52.99
2018-03-19T04:15:44.152Z,52.99
2018-03-19T04:16:44.209Z,53.18
2018-03-19T04:17:44.106Z,53.56
2018-03-19T04:18:44.085Z,53.75
2018-03-19T04:19:44.055Z,53.65
2018-03-19T04:20:44.019Z,53.65
2018-03-19T04:21:43.993Z,53.46
2018-03-19T04:22:43.968Z,53.37
2018-03-19T04:23:43.949Z,53.65
2018-03-19T04:24:43.918Z,53.91
2018-03-19T04:25:43.890Z,53.94
2018-03-19T04:26:43.862Z,54.79
2018-03-19T04:27:43.841Z,54.13
2018-03-19T04:28:43.808Z,54.32
2018-03-19T04:29:43.791Z,53.94
2018-03-19T04:30:43.758Z,54.32
2018-03-19T04:31:43.728Z,54.41
2018-03-19T04:32:43.707Z,53.94
2018-03-19T04:33:43.678Z,53.94
2018-03-19T04:34:43.656Z,53.18
2018-03-19T04:35:43.629Z,53.65
2018-03-19T04:36:43.597Z,53.37
2018-03-19T04:37:43.572Z,54.03
2018-03-19T04:38:43.549Z,53.56
2018-03-19T04:39:43.520Z,53.75
2018-03-19T04:40:43.493Z,53.37
2018-03-19T04:41:43.468Z,53.46
2018-03-19T04:42:43.446Z,53.65
2018-03-19T04:43:43.416Z,53.46
2018-03-19T04:44:43.390Z,53.65
2018-03-19T04:45:43.365Z,53.84
2018-03-19T04:46:43.341Z,53.56
2018-03-19T04:47:43.309Z,53.18
2018-03-19T04:48:43.281Z,53.08
2018-03-19T04:49:43.257Z,53.08
2018-03-19T04:50:43.230Z,52.99
2018-03-19T04:51:43.203Z,53.08
2018-03-19T04:52:43.179Z,53.18
2018-03-19T04:53:43.150Z,52.99
2018-03-19T04:54:43.123Z,53.27
2018-03-19T04:55:43.104Z,53.84
2018-03-19T04:56:43.068Z,53.37
2018-03-19T04:57:43.043Z,53.65
2018-03-19T04:58:43.020Z,53.27
2018-03-19T04:59:42.988Z,52.61
2018-03-19T05:00:42.963Z,52.80
2018-03-19T05:01:42.936Z,52.80
2018-03-19T05:02:42.909Z,53.08
2018-03-19T05:03:42.884Z,53.18
2018-03-19T05:04:42.862Z,52.61
2018-03-19T05:05:42.838Z,52.99
2018-03-19T05:06:42.806Z,53.25
2018-03-19T05:07:42.829Z,53.15
2018-03-19T05:08:42.751Z,53.27
2018-03-19T05:09:42.830Z,53.37
2018-03-19T05:10:42.707Z,53.18
2018-03-19T05:11:42.676Z,53.08
2018-03-19T05:12:42.648Z,53.84
2018-03-19T05:13:42.720Z,53.18
2018-03-19T05:14:42.591Z,52.99
2018-03-19T05:15:42.677Z,53.18
2018-03-19T05:16:42.540Z,53.37
2018-03-19T05:17:42.515Z,53.18
2018-03-19T05:18:42.489Z,53.65
2018-03-19T05:19:42.499Z,53.18
2018-03-19T05:20:42.438Z,52.61
2018-03-19T05:21:42.514Z,52.99
2018-03-19T05:22:42.381Z,52.80
2018-03-19T05:23:42.389Z,53.18
2018-03-19T05:24:42.328Z,53.37
2018-03-19T05:25:42.453Z,53.37
2018-03-19T05:26:42.279Z,53.46
2018-03-19T05:27:42.248Z,53.84
2018-03-19T05:28:42.229Z,53.37
2018-03-19T05:29:42.202Z,53.63
2018-03-19T05:30:42.170Z,53.53
2018-03-19T05:31:42.148Z,53.81
2018-03-19T05:32:42.119Z,53.91
2018-03-19T05:33:42.100Z,54.19
2018-03-19T05:34:42.068Z,53.81
2018-03-19T05:35:42.043Z,54.10
2018-03-19T05:36:42.020Z,54.13
2018-03-19T05:37:41.988Z,53.81
2018-03-19T05:38:41.980Z,54.10
2018-03-19T05:39:41.933Z,54.03
2018-03-19T05:40:41.906Z,54.22
2018-03-19T05:41:41.876Z,54.03
2018-03-19T05:42:41.861Z,54.03
2018-03-19T05:43:41.830Z,54.19
2018-03-19T05:44:41.803Z,54.03
2018-03-19T05:45:41.774Z,54.22
2018-03-19T05:46:41.751Z,54.32
2018-03-19T05:47:41.722Z,54.22
2018-03-19T05:48:41.699Z,54.41
2018-03-19T05:49:41.666Z,54.22
2018-03-19T05:50:41.638Z,54.03
2018-03-19T05:51:41.613Z,54.03
2018-03-19T05:52:41.597Z,54.32
2018-03-19T05:53:41.626Z,54.50
2018-03-19T05:54:41.537Z,54.41
2018-03-19T05:55:41.512Z,54.69
2018-03-19T05:56:41.510Z,54.79
2018-03-19T05:57:41.457Z,54.79
2018-03-19T05:58:41.430Z,54.32
2018-03-19T05:59:41.405Z,54.22
2018-03-19T06:00:41.381Z,54.69
2018-03-19T06:01:41.351Z,54.60
2018-03-19T06:02:41.356Z,54.28
2018-03-19T06:03:41.300Z,54.32
2018-03-19T06:04:41.280Z,54.79
2018-03-19T06:05:41.249Z,54.79
2018-03-19T06:06:41.220Z,54.69
2018-03-19T06:07:41.204Z,54.79
2018-03-19T06:08:41.168Z,55.35
2018-03-19T06:09:41.139Z,55.07
2018-03-19T06:10:41.118Z,54.69
2018-03-19T06:11:41.088Z,54.88
2018-03-19T06:12:41.064Z,54.97
2018-03-19T06:13:41.036Z,54.79
2018-03-19T06:14:41.009Z,54.69
2018-03-19T06:15:40.988Z,54.03
2018-03-19T06:16:41.006Z,54.22
2018-03-19T06:17:40.930Z,53.94
2018-03-19T06:18:41.054Z,54.41
2018-03-19T06:19:40.881Z,54.22
2018-03-19T06:20:40.956Z,54.22
2018-03-19T06:21:40.838Z,54.79
2018-03-19T06:22:40.808Z,54.69
2018-03-19T06:23:40.780Z,54.97
2018-03-19T06:24:40.799Z,54.69
2018-03-19T06:25:40.722Z,54.32
2018-03-19T06:26:40.700Z,54.03
2018-03-19T06:27:40.669Z,54.22
2018-03-19T06:28:40.648Z,54.03
2018-03-19T06:29:40.613Z,54.32
2018-03-19T06:30:40.590Z,54.50
2018-03-19T06:31:40.562Z,54.41
2018-03-19T06:32:40.546Z,54.32
2018-03-19T06:33:40.508Z,53.65
2018-03-19T06:34:40.484Z,53.84
2018-03-19T06:35:40.457Z,53.84
2018-03-19T06:36:40.438Z,54.22
2018-03-19T06:37:40.405Z,54.03
2018-03-19T06:38:40.386Z,53.65
2018-03-19T06:39:40.357Z,53.46
2018-03-19T06:40:40.327Z,53.46
2018-03-19T06:41:40.303Z,53.94
2018-03-19T06:42:40.276Z,53.37
2018-03-19T06:43:40.250Z,53.65
2018-03-19T06:44:40.230Z,53.94
2018-03-19T06:45:40.195Z,53.46
2018-03-19T06:46:40.173Z,53.18
2018-03-19T06:47:40.145Z,53.46
2018-03-19T06:48:40.116Z,53.27
2018-03-19T06:49:40.088Z,53.08
2018-03-19T06:50:40.066Z,53.27
2018-03-19T06:51:40.064Z,52.42
2018-03-19T06:52:40.014Z,52.33
2018-03-19T06:53:39.993Z,52.04
2018-03-19T06:54:39.966Z,51.76
2018-03-19T06:55:39.940Z,51.79
2018-03-19T06:56:39.924Z,51.88
2018-03-19T06:57:39.886Z,51.50
2018-03-19T06:58:39.867Z,51.69
2018-03-19T06:59:39.849Z,50.46
2018-03-19T07:00:39.812Z,49.45
2018-03-19T07:01:39.822Z,48.15
2018-03-19T07:02:39.768Z,47.11
2018-03-19T07:03:39.750Z,45.60
2018-03-19T07:04:39.725Z,44.58
2018-03-19T07:05:39.710Z,43.80
2018-03-19T07:06:39.681Z,43.90
2018-03-19T07:07:39.661Z,43.71
2018-03-19T07:08:39.649Z,43.80
2018-03-19T07:09:39.618Z,43.87
2018-03-19T07:10:39.601Z,44.65
2018-03-19T07:11:39.579Z,44.77
2018-03-19T07:12:39.569Z,43.63
2018-03-19T07:13:39.542Z,43.07
2018-03-19T07:14:39.521Z,42.40
2018-03-19T07:15:39.503Z,42.02
2018-03-19T07:16:39.488Z,41.76
2018-03-19T07:17:39.470Z,41.76
2018-03-19T07:18:39.453Z,40.81
2018-03-19T07:19:39.450Z,41.17
2018-03-19T07:20:39.417Z,41.38
2018-03-19T07:21:39.403Z,41.00
2018-03-19T07:22:39.388Z,40.81
2018-03-19T07:23:39.384Z,40.15
2018-03-19T07:24:39.361Z,39.75
2018-03-19T07:25:39.357Z,39.47
2018-03-19T07:26:39.331Z,40.06
2018-03-19T07:27:39.324Z,39.68
2018-03-19T07:28:39.328Z,39.68
2018-03-19T07:29:39.298Z,39.49
2018-03-19T07:30:39.284Z,39.29
2018-03-19T07:31:39.262Z,39.39
2018-03-19T07:32:39.253Z,38.92
2018-03-19T07:33:39.243Z,38.82
2018-03-19T07:34:39.300Z,38.28
2018-03-19T07:35:39.222Z,37.82
2018-03-19T07:36:39.211Z,36.97
2018-03-19T07:37:39.196Z,35.75
2018-03-19T07:38:39.187Z,35.94
2018-03-19T07:39:39.182Z,35.09
2018-03-19T07:40:39.164Z,34.41
2018-03-19T07:41:39.166Z,34.50
2018-03-19T07:42:39.151Z,34.61
2018-03-19T07:43:39.218Z,34.16
2018-03-19T07:44:39.133Z,33.50
2018-03-19T07:45:39.115Z,32.65
2018-03-19T07:46:39.111Z,31.92
2018-03-19T07:47:39.101Z,30.77
2018-03-19T07:48:39.101Z,29.82
2018-03-19T07:49:39.080Z,29.53
2018-03-19T07:50:39.078Z,29.33
2018-03-19T07:51:39.072Z,29.43
2018-03-19T07:52:39.160Z,29.44
2018-03-19T07:53:39.055Z,29.62
2018-03-19T07:54:39.193Z,29.70
2018-03-19T07:55:39.045Z,29.60
2018-03-19T07:56:39.131Z,30.47
2018-03-19T07:57:39.019Z,30.11
2018-03-19T07:58:39.012Z,29.17
2018-03-19T07:59:39.011Z,28.02
2018-03-19T08:00:39.050Z,27.73
2018-03-19T08:01:38.989Z,27.56
2018-03-19T08:02:38.980Z,27.28
2018-03-19T08:03:38.980Z,26.16
2018-03-19T08:04:38.976Z,25.79
2018-03-19T08:05:38.960Z,24.95
2018-03-19T08:06:38.952Z,24.18
2018-03-19T08:07:38.954Z,23.52
2018-03-19T08:08:38.940Z,23.22
2018-03-19T08:09:38.941Z,23.60
2018-03-19T08:10:38.926Z,23.99
2018-03-19T08:11:38.918Z,23.43
2018-03-19T08:12:38.913Z,23.07
2018-03-19T08:13:38.911Z,22.29
2018-03-19T08:14:38.909Z,22.47
2018-03-19T08:15:38.896Z,22.35
2018-03-19T08:16:38.888Z,23.29
2018-03-19T08:17:38.907Z,24.15
2018-03-19T08:18:38.932Z,24.65
2018-03-19T08:19:38.896Z,23.90
2018-03-19T08:20:38.870Z,23.05
2018-03-19T08:21:38.860Z,22.29
2018-03-19T08:22:38.860Z,21.89
2018-03-19T08:23:38.849Z,22.55
2018-03-19T08:24:38.845Z,23.21
2018-03-19T08:25:38.838Z,23.40
2018-03-19T08:26:38.833Z,23.89
2018-03-19T08:27:38.891Z,23.34
2018-03-19T08:28:38.830Z,22.49
2018-03-19T08:29:38.827Z,21.66
2018-03-19T08:30:38.812Z,20.96
2018-03-19T08:31:38.807Z,21.24
2018-03-19T08:32:38.801Z,21.44
2018-03-19T08:33:38.799Z,20.88
2018-03-19T08:34:38.809Z,20.69
2018-03-19T08:35:38.793Z,20.21
2018-03-19T08:36:38.779Z,20.21
2018-03-19T08:37:38.779Z,19.92
2018-03-19T08:38:38.774Z,20.32
2018-03-19T08:39:38.772Z,19.74
2018-03-19T08:40:38.769Z,19.85
2018-03-19T08:41:38.759Z,19.09
2018-03-19T08:42:38.755Z,18.32
2018-03-19T08:43:38.750Z,19.23
2018-03-19T08:44:38.743Z,20.11
2018-03-19T08:45:38.739Z,20.57
2018-03-19T08:46:38.739Z,20.67
2018-03-19T08:47:38.735Z,20.75
2018-03-19T08:48:38.727Z,21.62
2018-03-19T08:49:38.731Z,21.06
2018-03-19T08:50:38.720Z,20.78
2018-03-19T08:51:38.711Z,20.84
2018-03-19T08:52:38.711Z,21.33
2018-03-19T08:53:38.717Z,21.42
2018-03-19T08:54:38.699Z,21.44
2018-03-19T08:55:38.696Z,20.87
2018-03-19T08:56:38.688Z,20.11
2018-03-19T08:57:38.694Z,20.28
2018-03-19T08:58:38.679Z,20.87
2018-03-19T08:59:38.678Z,20.94
2018-03-19T09:00:38.669Z,20.84
2018-03-19T09:01:38.666Z,21.24
2018-03-19T09:02:38.659Z,21.08
2018-03-19T09:03:38.661Z,20.59
2018-03-19T09:04:38.652Z,20.29
2018-03-19T09:05:38.649Z,20.69
2018-03-19T09:06:38.694Z,20.60
2018-03-19T09:07:38.639Z,19.95
2018-03-19T09:08:38.633Z,19.30
2018-03-19T09:09:38.622Z,18.64
2018-03-19T09:10:38.623Z,17.50
2018-03-19T09:11:38.637Z,16.82
2018-03-19T09:12:38.622Z,16.63
2018-03-19T09:13:38.610Z,16.63
2018-03-19T09:14:38.601Z,17.00
2018-03-19T09:15:38.601Z,17.10
2018-03-19T09:16:38.592Z,17.38
2018-03-19T09:17:38.592Z,17.10
2018-03-19T09:18:38.577Z,17.00
2018-03-19T09:19:38.569Z,17.37
2018-03-19T09:20:38.566Z,17.37
2018-03-19T09:21:38.563Z,17.56
2018-03-19T09:22:38.557Z,17.95
2018-03-19T09:23:38.547Z,17.76
2018-03-19T09:24:38.543Z,18.52
2018-03-19T09:25:38.540Z,17.76
2018-03-19T09:26:38.525Z,17.47
2018-03-19T09:27:38.521Z,17.66
2018-03-19T09:28:38.518Z,18.04
2018-03-19T09:29:38.516Z,18.41
2018-03-19T09:30:38.500Z,18.80
2018-03-19T09:31:38.500Z,18.99
2018-03-19T09:32:38.487Z,18.70
2018-03-19T09:33:38.477Z,18.79
2018-03-19T09:34:38.468Z,18.88
2018-03-19T09:35:38.462Z,19.07
2018-03-19T09:36:38.518Z,19.38
2018-03-19T09:37:38.451Z,18.61
2018-03-19T09:38:38.435Z,18.61
2018-03-19T09:39:38.431Z,18.25
2018-03-19T09:40:38.420Z,17.57
2018-03-19T09:41:38.434Z,17.37
2018-03-19T09:42:38.413Z,17.95
2018-03-19T09:43:38.401Z,17.66
2018-03-19T09:44:38.393Z,17.37
2018-03-19T09:45:38.375Z,17.66
2018-03-19T09:46:38.369Z,17.77
2018-03-19T09:47:38.456Z,17.49
2018-03-19T09:48:38.349Z,17.40
2018-03-19T09:49:38.362Z,17.02
2018-03-19T09:50:38.354Z,16.35
2018-03-19T09:51:38.321Z,16.14
2018-03-19T09:52:38.308Z,17.36
2018-03-19T09:53:38.299Z,18.43
2018-03-19T09:54:38.324Z,17.76
2018-03-19T09:55:38.331Z,18.52
2018-03-19T09:56:38.272Z,18.90
2018-03-19T09:57:38.254Z,17.84
2018-03-19T09:58:38.245Z,18.51
2018-03-19T09:59:38.289Z,18.88
2018-03-19T10:00:38.227Z,19.07
2018-03-19T10:01:38.210Z,19.84
2018-03-19T10:02:38.202Z,19.91
2018-03-19T10:03:38.255Z,20.87
2018-03-19T10:04:38.181Z,21.36
2018-03-19T10:05:38.168Z,21.64
2018-03-19T10:06:38.155Z,21.17
2018-03-19T10:07:38.145Z,20.88
2018-03-19T10:08:38.134Z,20.60
2018-03-19T10:09:38.119Z,20.31
2018-03-19T10:10:38.105Z,20.78
2018-03-19T10:11:38.100Z,20.85
2018-03-19T10:12:38.086Z,21.72
2018-03-19T10:13:38.070Z,21.81
2018-03-19T10:14:38.058Z,22.94
2018-03-19T10:15:38.047Z,23.69
2018-03-19T10:16:38.036Z,23.88
2018-03-19T10:17:38.021Z,24.63
2018-03-19T10:18:38.010Z,25.01
2018-03-19T10:19:37.993Z,25.11
2018-03-19T10:20:37.985Z,25.98
2018-03-19T10:21:38.023Z,25.81
2018-03-19T10:22:37.952Z,24.67
2018-03-19T10:23:37.937Z,23.80
2018-03-19T10:24:37.928Z,23.60
2018-03-19T10:25:37.918Z,23.69
2018-03-19T10:26:37.900Z,24.17
2018-03-19T10:27:37.882Z,24.28
2018-03-19T10:28:37.867Z,23.80
2018-03-19T10:29:37.859Z,23.80
2018-03-19T10:30:37.845Z,24.18
2018-03-19T10:31:37.835Z,24.01
2018-03-19T10:32:37.816Z,23.53
2018-03-19T10:33:37.796Z,23.33
2018-03-19T10:34:37.794Z,23.99
2018-03-19T10:35:37.767Z,23.80
2018-03-19T10:36:37.753Z,23.89
2018-03-19T10:37:37.746Z,23.49
2018-03-19T10:38:37.730Z,25.10
2018-03-19T10:39:37.723Z,25.37
2018-03-19T10:40:37.695Z,27.07
2018-03-19T10:41:37.688Z,27.84
2018-03-19T10:42:37.668Z,27.65
2018-03-19T10:43:37.656Z,27.95
2018-03-19T10:44:37.640Z,27.68
2018-03-19T10:45:37.627Z,26.35
2018-03-19T10:46:37.609Z,26.16
2018-03-19T10:47:37.596Z,26.26
2018-03-19T10:48:37.578Z,25.79
2018-03-19T10:49:37.569Z,25.79
2018-03-19T10:50:37.555Z,25.89
2018-03-19T10:51:37.540Z,25.89
2018-03-19T10:52:37.520Z,25.70
2018-03-19T10:53:37.508Z,26.95
2018-03-19T10:54:37.487Z,26.39
2018-03-19T10:55:37.476Z,25.15
2018-03-19T10:56:37.459Z,24.10
2018-03-19T10:57:37.443Z,23.79
2018-03-19T10:58:37.437Z,24.27
2018-03-19T10:59:37.413Z,24.92
2018-03-19T11:00:37.401Z,26.36
2018-03-19T11:01:37.390Z,26.36
2018-03-19T11:02:37.370Z,26.09
2018-03-19T11:03:37.359Z,25.24
2018-03-19T11:04:37.346Z,24.37
2018-03-19T11:05:37.337Z,25.04
2018-03-19T11:06:37.313Z,25.04
2018-03-19T11:07:37.300Z,25.70
2018-03-19T11:08:37.279Z,25.41
2018-03-19T11:09:37.272Z,26.53
2018-03-19T11:10:37.250Z,27.76
2018-03-19T11:11:37.236Z,27.94
2018-03-19T11:12:37.217Z,28.13
2018-03-19T11:13:37.219Z,28.13
2018-03-19T11:14:37.186Z,27.95
2018-03-19T11:15:37.169Z,28.25
2018-03-19T11:16:37.159Z,27.78
2018-03-19T11:17:37.140Z,27.50
2018-03-19T11:18:37.131Z,27.01
2018-03-19T11:19:37.107Z,26.35
2018-03-19T11:20:37.122Z,26.34
2018-03-19T11:21:37.078Z,26.61
2018-03-19T11:22:37.060Z,27.46
2018-03-19T11:23:37.039Z,27.84
2018-03-19T11:24:37.031Z,28.03
2018-03-19T11:25:37.012Z,27.75
2018-03-19T11:26:36.999Z,27.84
2018-03-19T11:27:36.980Z,28.31
2018-03-19T11:28:36.956Z,28.98
2018-03-19T11:29:36.939Z,29.08
2018-03-19T11:30:37.001Z,28.81
2018-03-19T11:31:36.905Z,28.23
2018-03-19T11:32:36.888Z,28.53
2018-03-19T11:33:36.876Z,27.49
2018-03-19T11:34:36.909Z,27.58
2018-03-19T11:35:36.840Z,27.56
2018-03-19T11:36:36.869Z,27.83
2018-03-19T11:37:36.812Z,29.25
2018-03-19T11:38:36.850Z,29.73
2018-03-19T11:39:36.773Z,30.49
2018-03-19T11:40:36.757Z,30.20
2018-03-19T11:41:36.739Z,30.20
2018-03-19T11:42:36.770Z,31.26
2018-03-19T11:43:36.712Z,30.98
2018-03-19T11:44:36.680Z,29.57
2018-03-19T11:45:36.687Z,29.46
2018-03-19T11:46:36.654Z,28.89
2018-03-19T11:47:36.630Z,29.27
2018-03-19T11:48:36.611Z,28.71
2018-03-19T11:49:36.599Z,28.42
2018-03-19T11:50:36.630Z,28.05
2018-03-19T11:51:36.563Z,28.52
2018-03-19T11:52:36.539Z,28.05
2018-03-19T11:53:36.531Z,27.37
2018-03-19T11:54:36.509Z,27.65
2018-03-19T11:55:36.487Z,28.60
2018-03-19T11:56:36.469Z,29.17
2018-03-19T11:57:36.455Z,29.17
2018-03-19T11:58:36.490Z,29.27
2018-03-19T11:59:36.420Z,28.98
2018-03-19T12:00:36.454Z,29.06
2018-03-19T12:01:36.387Z,29.44
2018-03-19T12:02:36.422Z,29.63
2018-03-19T12:03:36.350Z,29.64
2018-03-19T12:04:36.332Z,29.53
2018-03-19T12:05:36.314Z,30.49
2018-03-19T12:06:36.295Z,30.11
2018-03-19T12:07:36.279Z,30.49
2018-03-19T12:08:36.259Z,29.36
2018-03-19T12:09:36.240Z,29.74
2018-03-19T12:10:36.231Z,29.53
2018-03-19T12:11:36.211Z,29.27
2018-03-19T12:12:36.193Z,29.38
2018-03-19T12:13:36.171Z,29.28
2018-03-19T12:14:36.164Z,28.89
2018-03-19T12:15:36.141Z,28.14
2018-03-19T12:16:36.119Z,28.81
2018-03-19T12:17:36.103Z,28.71
2018-03-19T12:18:36.081Z,28.81
2018-03-19T12:19:36.072Z,28.14
2018-03-19T12:20:36.051Z,27.76
2018-03-19T12:21:36.031Z,27.68
2018-03-19T12:22:36.008Z,27.19
2018-03-19T12:23:35.992Z,27.57
2018-03-19T12:24:35.982Z,28.03
2018-03-19T12:25:35.976Z,28.79
2018-03-19T12:26:35.940Z,29.17
2018-03-19T12:27:35.926Z,29.57
2018-03-19T12:28:35.908Z,29.47
2018-03-19T12:29:35.889Z,29.49
2018-03-19T12:30:35.871Z,28.25
2018-03-19T12:31:35.863Z,27.48
2018-03-19T12:32:35.834Z,27.67
2018-03-19T12:33:35.818Z,28.23
2018-03-19T12:34:35.794Z,27.95
2018-03-19T12:35:35.780Z,28.52
2018-03-19T12:36:35.761Z,29.57
2018-03-19T12:37:35.761Z,28.90
2018-03-19T12:38:35.732Z,27.97
2018-03-19T12:39:35.725Z,27.87
2018-03-19T12:40:35.695Z,28.06
2018-03-19T12:41:35.680Z,27.88
2018-03-19T12:42:35.658Z,27.69
2018-03-19T12:43:35.640Z,27.79
2018-03-19T12:44:35.631Z,27.98
2018-03-19T12:45:35.610Z,27.39
2018-03-19T12:46:35.592Z,27.86
2018-03-19T12:47:35.575Z,27.86
2018-03-19T12:48:35.555Z,28.81
2018-03-19T12:49:35.539Z,29.19
2018-03-19T12:50:35.520Z,29.58
2018-03-19T12:51:35.502Z,28.06
2018-03-19T12:52:35.483Z,28.25